Aeroporto :
LOGIN :

Iscrizione | Disclaimer

   EN    FR    IT 

 










Sommario :    VFR   VFR Marginale   IFR   IFR Intensivo   IFR Molto Intensivo
Visibilità : 
Base nubi : 
>= 8 km
>= 3000ft
5 / 8 km
1000 / 3000 ft
1500m / 5 km
500 / 1000 ft
800 / 1500m
200 / 500 ft
< 800m
< 200 ft
Simboli :   Temporali  Nebbia  Neve Forte  Precipitazioni Forti  Vento > 20 kt
SIGMETs :   Varie  Temporali  Ghiacco  Turbolenza  Onda orograficha  Ceneri Vulcaniche






- Altitudine del aeroporto : 18 ft
- Codice IATA : AJA


LFKJ - Ajaccio

ULTIMO METAR :
  • 271130Z AUTO 32011KT 290V350 9999 BKN058 14/02 Q1017

METARs OBSOLETI :
  • 271100Z AUTO 16004KT 110V210 9999 SCT049 BKN060 15/04 Q1017 TEMPO SHRA SCT020TCU BKN025 BECMG 27010KT
  • 271030Z AUTO 23004KT 160V290 9999 BKN049 BKN056 14/03 Q1017 TEMPO SHRA SCT020TCU BKN025
  • 271000Z AUTO 22003KT 130V290 9999 BKN052 BKN062 14/02 Q1017 NOSIG
  • 270930Z AUTO 26006KT 230V320 9999 FEW052 13/02 Q1017 NOSIG
  • 270900Z AUTO VRB03KT 9999 BKN058 13/02 Q1017 NOSIG

TAF TAF LFKJ
Valido dal 27 a 09 ore il 28 a 09 ore UTC


270800Z 2709/2809 06006KT 9999 NSC
BECMG 2709/2712 27010KT BKN025
TEMPO 2712/2718 SHRA SCT020TCU BKN025
BECMG 2720/2721 27015G25KT
BECMG 2800/2803 34010KT
ATIS : +33 4 95 23 59 85



MetMap, La meteo Aeronautica in un colpo d'occhio ! - Copyright ORBIFLY Dicembre 2007 - Disclaimer

ORBIFLY MET'MAP TEAM :

Programmazione e sviluppo : Alexandra Zaïnal
Concezione : Baudouin d'Aumeries
Aiuto per la programmazione : Marc-Olivier Méhu
Supporto tecnico e logistico : Manuel Goepfert
Aiuto per la traduzione : Arnaldo La Scala

Contatto : metmap@orbifly.com




FONTI E CREDITI :

   NOAA